Time;durP1;ratioP1;P1;durP2;ratioP2;P2;SDS_P1;SDS_P2;PMS_P1;PMS_P2;Temp;Humidity;BMP_temperature;BMP_pressure;BME280_temperature;BME280_humidity;BME280_pressure;Samples;Min_cycle;Max_cycle;Signal;HPM_P1;HPM_P2
2023/01/02 00:00:37;;;;;;;10.68;7.25;;;;;;;13.42;78.09;100614.41;2873873;82;21668;-82
2023/01/02 00:04:40;;;;;;;12.70;8.73;;;;;;;13.41;78.54;100618.06;2881047;81;21073;-83
2023/01/02 00:08:41;;;;;;;14.75;9.25;;;;;;;13.34;78.99;100615.09;2885206;80;21011;-82
2023/01/02 00:12:42;;;;;;;20.08;9.38;;;;;;;13.34;79.21;100616.91;2887220;81;21044;-82
2023/01/02 00:16:43;;;;;;;25.37;13.83;;;;;;;13.32;79.07;100613.52;2871516;81;21067;-82
2023/01/02 00:20:44;;;;;;;25.20;12.35;;;;;;;13.37;79.05;100612.65;2817238;81;21046;-82
2023/01/02 00:24:46;;;;;;;15.20;9.45;;;;;;;13.38;79.08;100603.65;2816340;82;21050;-82
2023/01/02 00:28:47;;;;;;;11.78;8.08;;;;;;;13.22;79.93;100598.33;2900405;80;21065;-82
2023/01/02 00:32:48;;;;;;;13.93;9.55;;;;;;;13.07;80.52;100587.65;2858800;82;21026;-82
2023/01/02 00:36:49;;;;;;;16.97;9.30;;;;;;;12.98;80.85;100583.48;2867269;81;21079;-82
2023/01/02 00:40:50;;;;;;;15.48;10.05;;;;;;;12.88;81.42;100582.58;2824354;83;21036;-82
2023/01/02 00:44:51;;;;;;;12.35;8.10;;;;;;;12.81;81.52;100578.77;2863705;83;21086;-83
2023/01/02 00:48:52;;;;;;;11.48;9.28;;;;;;;12.79;81.27;100574.05;2807311;83;21002;-82
2023/01/02 00:52:53;;;;;;;15.70;8.88;;;;;;;12.80;81.12;100571.73;2862726;82;21684;-82
2023/01/02 00:56:54;;;;;;;15.65;7.55;;;;;;;12.74;81.30;100565.10;2794312;83;21647;-82
2023/01/02 01:00:55;;;;;;;12.68;8.28;;;;;;;12.86;80.71;100564.52;2798612;83;21035;-82
2023/01/02 01:04:56;;;;;;;11.22;7.80;;;;;;;12.92;80.68;100565.81;2849547;82;21015;-81
2023/01/02 01:08:58;;;;;;;15.50;8.30;;;;;;;13.02;80.09;100568.52;2722298;84;21031;-82
2023/01/02 01:12:59;;;;;;;10.68;7.72;;;;;;;13.08;79.56;100574.17;2826761;84;20978;-82
2023/01/02 01:17:01;;;;;;;13.15;10.05;;;;;;;13.14;79.24;100562.08;2831375;83;21046;-82
2023/01/02 01:21:12;;;;;;;13.20;8.08;;;;;;;13.25;78.87;100557.12;2823866;83;21035;-82
2023/01/02 01:25:13;;;;;;;12.13;7.90;;;;;;;13.23;78.92;100553.27;2806936;83;21059;-81
2023/01/02 01:29:14;;;;;;;15.93;9.78;;;;;;;13.29;78.97;100548.70;2774223;83;21588;-82
2023/01/02 01:33:15;;;;;;;12.20;9.08;;;;;;;13.26;78.87;100555.66;2854502;83;20972;-82
2023/01/02 01:37:16;;;;;;;16.67;9.85;;;;;;;13.20;78.98;100546.01;2758592;83;21046;-83
2023/01/02 01:41:22;;;;;;;18.02;8.78;;;;;;;13.32;78.78;100552.08;2759101;83;21989;-83
2023/01/02 01:45:23;;;;;;;13.55;7.35;;;;;;;13.32;79.28;100558.28;2827762;83;21881;-82
2023/01/02 01:49:26;;;;;;;10.13;8.38;;;;;;;13.31;79.24;100551.72;2855175;82;21009;-82
2023/01/02 01:53:28;;;;;;;14.63;10.45;;;;;;;13.20;80.00;100546.87;2820831;83;21031;-82
2023/01/02 01:57:34;;;;;;;9.48;7.12;;;;;;;13.17;80.31;100547.14;2830095;82;21358;-82
2023/01/02 02:01:36;;;;;;;9.68;6.55;;;;;;;13.07;81.40;100546.26;2852647;83;21011;-82
2023/01/02 02:05:40;;;;;;;10.35;7.72;;;;;;;12.99;81.98;100546.93;2834413;82;21180;-82
2023/01/02 02:09:52;;;;;;;14.75;9.55;;;;;;;12.91;81.85;100535.59;2857687;82;21558;-82
2023/01/02 02:13:59;;;;;;;14.28;9.08;;;;;;;12.95;81.19;100531.66;2845560;82;21090;-82
2023/01/02 02:18:40;;;;;;;10.85;7.08;;;;;;;13.04;79.98;100517.98;2854648;83;21022;-82
2023/01/02 02:23:02;;;;;;;12.20;6.37;;;;;;;13.06;80.02;100508.02;2832321;83;21615;-82
2023/01/02 02:27:41;;;;;;;8.00;6.83;;;;;;;13.07;80.09;100503.53;2823243;83;21557;-82
2023/01/02 02:31:51;;;;;;;7.65;6.05;;;;;;;13.09;80.19;100498.89;2843460;83;21064;-82
2023/01/02 02:36:12;;;;;;;5.80;4.72;;;;;;;12.99;80.89;100495.72;2827306;83;21117;-82
2023/01/02 02:40:47;;;;;;;9.20;6.60;;;;;;;13.11;80.77;100488.91;2843543;83;21030;-83
2023/01/02 02:45:24;;;;;;;9.98;6.95;;;;;;;12.97;81.25;100477.66;2843628;83;21054;-83
2023/01/02 02:49:52;;;;;;;11.15;5.90;;;;;;;13.03;80.90;100468.23;2811293;83;21038;-83
2023/01/02 02:53:58;;;;;;;8.83;6.67;;;;;;;13.07;80.95;100470.14;2811787;83;21459;-83
2023/01/02 02:58:00;;;;;;;;;;;;;;;12.93;81.26;100466.05;2757633;85;21049;-83
2023/01/02 03:02:04;;;;;;;13.48;6.90;;;;;;;12.77;80.91;100455.87;2710788;86;20149;-83
2023/01/02 03:06:20;;;;;;;11.78;6.17;;;;;;;12.85;80.05;100462.72;2749178;85;21133;-83
2023/01/02 03:10:43;;;;;;;10.93;7.03;;;;;;;13.02;79.45;100458.53;2753257;85;21038;-83
2023/01/02 03:15:01;;;;;;;9.75;7.85;;;;;;;13.04;78.50;100448.56;2748302;85;21353;-83
2023/01/02 03:19:07;;;;;;;10.38;7.80;;;;;;;13.18;78.10;100440.66;2754444;84;20994;-83
2023/01/02 03:23:20;;;;;;;8.53;6.15;;;;;;;13.15;77.82;100442.24;2720627;85;22329;-82
2023/01/02 03:27:25;;;;;;;7.37;6.25;;;;;;;13.27;77.83;100447.82;2712006;85;21056;-82
2023/01/02 03:31:31;;;;;;;9.60;6.87;;;;;;;13.27;77.57;100438.47;2738796;85;21076;-83
2023/01/02 03:35:40;;;;;;;9.38;6.80;;;;;;;13.37;77.61;100438.98;2739852;85;21046;-83
2023/01/02 03:39:49;;;;;;;12.82;5.58;;;;;;;13.37;77.27;100428.30;2738986;84;21050;-83
2023/01/02 03:43:53;;;;;;;9.05;5.58;;;;;;;13.37;77.61;100429.63;2692439;87;21077;-83
2023/01/02 03:48:32;;;;;;;8.48;5.70;;;;;;;13.34;77.56;100421.39;2703184;87;21063;-82
2023/01/02 03:52:33;;;;;;;8.38;5.42;;;;;;;13.24;76.64;100413.37;2720914;86;21375;-82
2023/01/02 03:56:58;;;;;;;7.67;5.58;;;;;;;13.28;76.28;100415.29;2720542;87;21049;-82
2023/01/02 04:01:07;;;;;;;9.50;6.10;;;;;;;13.36;77.02;100407.88;2723944;85;21034;-82
2023/01/02 04:05:26;;;;;;;9.00;5.87;;;;;;;13.32;76.60;100406.48;2718313;86;21029;-83
2023/01/02 04:09:31;;;;;;;8.95;5.58;;;;;;;13.31;76.82;100394.11;2698814;87;21045;-83
2023/01/02 04:13:41;;;;;;;6.90;5.03;;;;;;;13.32;76.36;100385.11;2714746;85;21046;-83
2023/01/02 04:17:49;;;;;;;11.95;6.80;;;;;;;13.35;75.94;100384.34;2698013;87;21039;-84
2023/01/02 04:21:55;;;;;;;7.08;5.60;;;;;;;13.43;75.82;100382.33;2716608;86;21073;-84
2023/01/02 04:26:07;;;;;;;11.73;6.55;;;;;;;13.39;75.65;100382.23;2710437;86;22231;-85
2023/01/02 04:30:09;;;;;;;10.95;5.80;;;;;;;13.45;75.45;100376.83;2695136;86;21375;-85
2023/01/02 04:34:14;;;;;;;6.60;5.12;;;;;;;13.49;75.36;100368.39;2697810;86;21030;-84
2023/01/02 04:38:15;;;;;;;6.28;5.42;;;;;;;13.48;75.51;100373.39;2780290;84;21008;-85
2023/01/02 04:42:16;;;;;;;5.58;4.72;;;;;;;13.55;75.75;100376.34;2786466;84;21098;-85
2023/01/02 04:46:17;;;;;;;4.47;4.00;;;;;;;13.54;75.93;100371.47;2755467;84;21029;-85
2023/01/02 04:50:19;;;;;;;6.30;4.40;;;;;;;13.50;75.63;100370.08;2763674;84;21075;-85
2023/01/02 04:54:20;;;;;;;5.92;5.40;;;;;;;13.49;75.69;100359.04;2790650;84;21055;-85
2023/01/02 04:58:21;;;;;;;7.05;5.08;;;;;;;13.51;75.63;100355.73;2784211;84;21054;-85
2023/01/02 05:02:22;;;;;;;6.00;3.70;;;;;;;13.56;75.29;100353.48;2763187;84;21074;-85
2023/01/02 05:06:23;;;;;;;4.28;3.87;;;;;;;13.60;75.27;100349.19;2790163;84;21050;-84
2023/01/02 05:10:24;;;;;;;6.60;3.65;;;;;;;13.61;75.01;100330.31;2756431;84;21049;-84
2023/01/02 05:14:26;;;;;;;4.30;3.27;;;;;;;13.71;74.73;100339.64;2757850;84;21016;-84
2023/01/02 05:18:28;;;;;;;6.17;3.75;;;;;;;13.70;74.73;100333.47;2785205;84;21419;-84
2023/01/02 05:26:49;;;;;;;5.12;2.92;;;;;;;13.64;75.04;100315.84;2809176;83;21516;-84
2023/01/02 05:30:50;;;;;;;6.55;4.22;;;;;;;13.54;75.39;100311.34;2811274;83;21551;-84
2023/01/02 05:34:51;;;;;;;8.85;4.15;;;;;;;13.52;75.42;100302.63;2797804;83;21036;-84
2023/01/02 05:38:53;;;;;;;6.50;4.67;;;;;;;13.48;76.08;100301.24;2789005;83;21605;-85
2023/01/02 05:42:54;;;;;;;5.03;4.30;;;;;;;13.54;75.91;100299.83;2841257;83;21053;-83
2023/01/02 05:46:55;;;;;;;6.42;4.90;;;;;;;13.49;75.96;100308.78;2818545;83;21385;-83
2023/01/02 05:51:04;;;;;;;5.90;3.60;;;;;;;13.48;76.13;100299.08;2791757;83;21046;-83
2023/01/02 05:55:06;;;;;;;4.87;4.05;;;;;;;13.53;75.69;100296.80;2757117;84;21443;-83
2023/01/02 05:59:07;;;;;;;5.58;3.72;;;;;;;13.56;75.17;100284.00;2757834;85;21018;-83
2023/01/02 06:03:08;;;;;;;7.08;4.72;;;;;;;13.67;74.70;100296.83;2723246;86;21031;-84
2023/01/02 06:07:09;;;;;;;8.05;4.00;;;;;;;13.64;74.71;100307.30;2731355;84;21039;-83
2023/01/02 06:11:10;;;;;;;4.08;3.30;;;;;;;13.63;74.85;100316.31;2747964;84;21060;-83
2023/01/02 06:15:12;;;;;;;8.05;3.50;;;;;;;13.44;75.57;100315.88;2754110;85;21067;-83
2023/01/02 06:19:13;;;;;;;7.15;3.27;;;;;;;13.46;75.80;100319.25;2739755;85;21658;-83
2023/01/02 06:23:15;;;;;;;4.42;3.15;;;;;;;13.37;76.26;100318.76;2752480;84;21781;-83
2023/01/02 06:27:17;;;;;;;4.10;3.08;;;;;;;13.29;76.94;100315.46;2838745;83;21035;-83
2023/01/02 06:31:20;;;;;;;3.80;3.35;;;;;;;13.27;76.95;100307.58;2845963;83;20979;-83
2023/01/02 06:35:22;;;;;;;6.47;3.75;;;;;;;13.28;76.76;100308.44;2838066;83;21047;-83
2023/01/02 06:39:23;;;;;;;4.90;2.77;;;;;;;13.35;76.21;100312.69;2819685;81;21062;-83
2023/01/02 06:43:26;;;;;;;4.50;3.00;;;;;;;13.45;75.62;100310.03;2815113;81;20995;-84
2023/01/02 06:47:27;;;;;;;5.85;3.55;;;;;;;13.51;75.40;100303.62;2842436;83;21024;-83
2023/01/02 06:51:28;;;;;;;6.55;2.83;;;;;;;13.59;74.93;100298.06;2844307;81;21039;-84
2023/01/02 06:55:30;;;;;;;3.47;2.67;;;;;;;13.66;74.51;100299.16;2811730;81;21076;-94
2023/01/02 06:59:31;;;;;;;5.17;3.10;;;;;;;13.71;74.33;100296.40;2754943;85;21586;-94
2023/01/02 07:03:33;;;;;;;2.90;2.35;;;;;;;13.80;74.05;100292.48;2742979;85;21066;-96
2023/01/02 07:07:34;;;;;;;4.37;2.52;;;;;;;13.83;74.34;100292.19;2770512;85;21042;-94
2023/01/02 07:11:35;;;;;;;6.30;3.37;;;;;;;13.81;74.26;100291.02;2770200;85;21638;-95
2023/01/02 07:15:36;;;;;;;3.00;2.42;;;;;;;13.71;74.70;100286.19;2741119;85;21014;-95
2023/01/02 07:19:37;;;;;;;3.37;2.92;;;;;;;13.78;74.66;100295.32;2754923;85;21046;-95
2023/01/02 07:23:40;;;;;;;5.00;2.33;;;;;;;13.74;74.76;100293.91;2748581;85;21066;-93
2023/01/02 07:27:41;;;;;;;3.35;2.58;;;;;;;13.73;74.68;100304.77;2767131;85;21043;-94
2023/01/02 07:31:42;;;;;;;3.20;2.85;;;;;;;13.83;74.39;100322.45;2706397;85;21038;-96
2023/01/02 07:35:44;;;;;;;4.60;3.60;;;;;;;13.85;74.58;100333.84;2715063;87;21116;-95
2023/01/02 07:39:45;;;;;;;2.92;2.62;;;;;;;13.89;74.93;100355.80;2707285;86;21028;-96
2023/01/02 07:43:47;;;;;;;3.30;2.45;;;;;;;13.81;76.09;100352.50;2677216;87;21018;-95
2023/01/02 07:47:48;;;;;;;6.22;3.77;;;;;;;13.79;76.22;100347.80;2662408;87;21101;-96
2023/01/02 07:51:50;;;;;;;5.55;4.33;;;;;;;13.75;76.23;100355.73;2677015;87;21061;-92
2023/01/02 07:55:58;;;;;;;5.22;4.58;;;;;;;13.83;75.75;100353.20;2694348;86;21050;-94
2023/01/02 07:59:59;;;;;;;3.15;2.55;;;;;;;13.92;76.12;100361.33;2805560;81;21720;-84
2023/01/02 08:04:00;;;;;;;4.78;3.58;;;;;;;14.00;76.12;100364.12;2893683;82;21040;-84
2023/01/02 08:08:01;;;;;;;3.90;3.50;;;;;;;14.04;76.14;100370.86;2893748;82;21256;-84
2023/01/02 08:12:03;;;;;;;3.35;3.05;;;;;;;14.09;76.19;100372.59;2892979;82;21020;-84
2023/01/02 08:16:11;;;;;;;2.90;2.70;;;;;;;14.16;74.84;100358.66;2899146;82;21078;-84
2023/01/02 08:20:12;;;;;;;5.12;3.70;;;;;;;14.25;74.98;100352.41;2891855;80;21034;-84
2023/01/02 08:24:13;;;;;;;4.50;3.37;;;;;;;14.17;74.50;100363.02;2887740;82;21684;-84
2023/01/02 08:28:15;;;;;;;18.42;10.40;;;;;;;14.20;74.53;100358.70;2772636;83;21349;-84
2023/01/02 08:32:16;;;;;;;3.35;2.90;;;;;;;14.23;74.37;100362.41;2887127;81;21144;-84
2023/01/02 08:36:17;;;;;;;3.87;2.95;;;;;;;14.13;74.83;100361.12;2856338;81;21016;-84
2023/01/02 08:40:18;;;;;;;3.72;2.98;;;;;;;14.11;75.25;100377.81;2823536;83;21038;-84
2023/01/02 08:44:19;;;;;;;4.83;3.20;;;;;;;14.23;75.54;100393.17;2863674;80;21102;-84
2023/01/02 08:48:21;;;;;;;5.90;3.52;;;;;;;14.30;76.23;100406.30;2901331;80;21891;-94
2023/01/02 08:52:22;;;;;;;4.45;2.83;;;;;;;14.36;76.32;100408.41;2913999;80;21039;-96
2023/01/02 08:56:27;;;;;;;3.77;3.37;;;;;;;14.31;75.53;100391.94;2915072;80;21102;-94
2023/01/02 09:00:29;;;;;;;4.90;3.50;;;;;;;14.39;75.89;100388.52;2908634;80;21510;-95
2023/01/02 09:04:30;;;;;;;5.85;3.65;;;;;;;14.35;74.77;100380.45;2916692;80;21019;-96
2023/01/02 09:08:31;;;;;;;4.58;3.52;;;;;;;14.39;75.50;100401.42;2902612;80;21958;-95
2023/01/02 09:12:33;;;;;;;3.27;2.83;;;;;;;14.21;75.67;100388.47;2905820;80;21090;-95
2023/01/02 09:16:34;;;;;;;3.40;3.08;;;;;;;14.26;75.84;100384.85;2893307;81;21027;-95
2023/01/02 09:20:40;;;;;;;4.28;3.27;;;;;;;14.27;76.43;100390.55;2852909;80;21126;-95
2023/01/02 09:24:41;;;;;;;;;;;;;;;14.40;76.33;100387.53;2903747;81;21014;-95
2023/01/02 09:28:42;;;;;;;3.83;2.90;;;;;;;14.42;76.76;100385.06;2881760;81;20159;-96
2023/01/02 09:32:44;;;;;;;3.35;3.05;;;;;;;14.45;77.93;100394.64;2913532;80;21036;-92
2023/01/02 09:36:46;;;;;;;5.03;3.02;;;;;;;14.46;78.38;100392.79;2885430;80;21038;-93
2023/01/02 09:40:51;;;;;;;3.70;2.35;;;;;;;14.48;78.58;100386.78;2914439;80;21027;-95
2023/01/02 09:44:56;;;;;;;4.72;3.02;;;;;;;14.59;78.63;100386.59;2914426;80;21081;-90
2023/01/02 09:49:00;;;;;;;4.70;2.60;;;;;;;14.77;78.10;100375.11;2894072;80;21548;-95
2023/01/02 09:53:03;;;;;;;3.22;2.85;;;;;;;14.95;79.59;100378.65;2918544;79;21055;-84
2023/01/02 09:57:12;;;;;;;2.60;2.40;;;;;;;15.12;78.93;100383.66;2866526;81;21030;-84
2023/01/02 10:01:46;;;;;;;2.67;2.45;;;;;;;15.33;75.77;100376.28;2876698;81;21058;-84
2023/01/02 10:06:16;;;;;;;6.72;5.05;;;;;;;15.40;74.48;100364.78;2870596;82;21483;-84
2023/01/02 10:10:40;;;;;;;9.83;4.20;;;;;;;15.53;73.85;100361.73;2852025;82;21018;-84
2023/01/02 10:14:55;;;;;;;4.62;3.58;;;;;;;15.58;73.30;100363.09;2886437;80;21069;-84
2023/01/02 10:19:00;;;;;;;6.15;3.95;;;;;;;15.45;72.63;100368.34;2893502;80;21074;-84
2023/01/02 10:23:06;;;;;;;5.17;3.50;;;;;;;15.29;73.30;100351.66;2905647;81;21050;-84
2023/01/02 10:27:12;;;;;;;5.87;3.92;;;;;;;15.09;74.21;100337.09;2895901;80;21659;-84
2023/01/02 10:31:29;;;;;;;3.45;3.00;;;;;;;14.85;75.61;100336.36;2898464;80;21015;-84
2023/01/02 10:35:47;;;;;;;4.33;3.55;;;;;;;14.74;75.97;100336.09;2864321;82;21583;-84
2023/01/02 10:39:49;;;;;;;6.92;4.55;;;;;;;14.66;75.91;100326.09;2875116;81;21065;-84
2023/01/02 10:43:59;;;;;;;4.08;3.67;;;;;;;14.75;75.79;100335.60;2901365;81;21617;-84
2023/01/02 10:48:00;;;;;;;7.95;5.65;;;;;;;14.75;76.25;100331.59;2850379;81;21050;-84
2023/01/02 10:52:42;;;;;;;5.97;3.92;;;;;;;14.72;75.89;100339.41;2891878;79;21034;-84
2023/01/02 10:56:48;;;;;;;6.47;4.65;;;;;;;14.74;76.97;100338.77;2918242;79;20996;-84
2023/01/02 11:01:12;;;;;;;4.35;3.90;;;;;;;14.72;78.41;100324.69;2917500;79;21516;-84
2023/01/02 11:05:21;;;;;;;5.33;4.78;;;;;;;14.72;78.41;100324.69;2944459;79;22075;-84
2023/01/02 11:09:29;;;;;;;5.40;4.90;;;;;;;14.67;77.66;100330.97;2930676;79;21013;-84
2023/01/02 11:13:36;;;;;;;5.70;4.83;;;;;;;14.70;78.25;100323.97;2924243;80;21001;-84
2023/01/02 11:17:43;;;;;;;6.33;4.00;;;;;;;14.69;77.94;100319.61;2912153;79;21043;-84
2023/01/02 11:21:47;;;;;;;6.87;4.95;;;;;;;14.72;77.11;100316.66;2925490;80;21551;-84
2023/01/02 11:25:50;;;;;;;5.90;4.70;;;;;;;14.73;77.04;100311.64;2912825;80;21024;-84
2023/01/02 11:29:51;;;;;;;6.20;5.60;;;;;;;14.78;76.63;100309.86;2917467;80;21090;-84
2023/01/02 11:33:58;;;;;;;7.03;5.47;;;;;;;14.74;76.37;100304.44;2924162;80;21027;-84
2023/01/02 11:38:01;;;;;;;8.60;5.95;;;;;;;14.83;77.00;100310.23;2921048;80;21068;-84
2023/01/02 11:46:38;;;;;;;16.55;5.22;;;;;;;14.99;76.53;100309.05;2891379;81;21509;-84
2023/01/02 11:50:42;;;;;;;10.82;7.30;;;;;;;15.12;76.53;100303.77;2918631;80;21356;-84
2023/01/02 11:55:04;;;;;;;14.45;5.78;;;;;;;15.12;76.60;100301.95;2869020;81;21057;-84
2023/01/02 11:59:31;;;;;;;12.33;8.43;;;;;;;15.21;75.73;100295.30;2874460;81;21041;-84
2023/01/02 12:03:33;;;;;;;11.30;7.05;;;;;;;15.26;75.29;100305.07;2879407;80;21594;-84
2023/01/02 12:07:45;;;;;;;10.75;6.25;;;;;;;15.31;75.47;100313.96;2905631;81;21029;-84
2023/01/02 12:12:03;;;;;;;10.43;6.67;;;;;;;15.26;75.44;100303.22;2850637;83;21033;-85
2023/01/02 12:16:33;;;;;;;11.63;8.20;;;;;;;15.34;75.30;100304.30;2877541;82;21028;-84
2023/01/02 12:20:57;;;;;;;7.05;5.83;;;;;;;15.34;75.75;100313.67;2880263;81;21057;-84
2023/01/02 12:25:13;;;;;;;14.63;8.45;;;;;;;15.36;75.62;100311.16;2861430;81;21012;-84
2023/01/02 12:29:23;;;;;;;13.10;9.17;;;;;;;15.41;76.05;100304.00;2753986;84;21001;-84
2023/01/02 12:34:10;;;;;;;27.40;14.38;;;;;;;15.47;76.42;100298.00;2750271;85;21186;-84
2023/01/02 12:38:16;;;;;;;12.73;7.47;;;;;;;15.44;76.44;100290.27;2749618;85;21044;-84
2023/01/02 12:42:28;;;;;;;6.58;5.42;;;;;;;15.44;76.22;100301.00;2586709;90;21106;-84
2023/01/02 12:47:11;;;;;;;9.85;7.25;;;;;;;15.47;76.26;100296.66;2575201;91;21117;-84
2023/01/02 12:51:40;;;;;;;8.93;7.22;;;;;;;15.41;76.13;100291.94;2568765;90;21097;-84
2023/01/02 12:56:11;;;;;;;15.35;9.33;;;;;;;15.27;76.51;100290.16;2570403;89;21130;-93
2023/01/02 13:00:57;;;;;;;11.68;8.80;;;;;;;15.32;75.97;100279.46;2516200;93;21097;-95
2023/01/02 13:05:03;;;;;;;10.38;8.48;;;;;;;15.34;75.81;100281.52;2550229;90;21069;-93
2023/01/02 13:09:37;;;;;;;6.95;5.90;;;;;;;15.31;76.25;100286.67;2588837;90;21095;-94
2023/01/02 13:13:38;;;;;;;7.75;5.97;;;;;;;15.28;76.58;100291.84;2652219;88;21069;-95
2023/01/02 13:17:56;;;;;;;7.40;6.03;;;;;;;15.17;77.28;100285.41;2651287;84;21089;-94
2023/01/02 13:22:06;;;;;;;7.67;6.20;;;;;;;15.18;77.10;100286.23;2747816;84;21069;-93
2023/01/02 13:26:14;;;;;;;10.15;6.62;;;;;;;15.08;77.53;100290.34;2714934;86;21023;-93
2023/01/02 13:30:39;;;;;;;18.12;9.08;;;;;;;15.08;77.20;100297.90;2689292;87;21542;-93
2023/01/02 13:34:53;;;;;;;7.80;7.03;;;;;;;15.03;77.62;100303.38;2754415;85;21028;-94
2023/01/02 13:39:02;;;;;;;11.73;8.08;;;;;;;15.02;77.55;100305.70;2770889;84;21094;-94
2023/01/02 13:43:09;;;;;;;12.13;7.60;;;;;;;14.98;77.87;100315.88;2776165;84;21108;-95
2023/01/02 13:47:30;;;;;;;9.78;5.97;;;;;;;14.91;77.69;100311.63;2761369;85;21105;-94
2023/01/02 13:51:35;;;;;;;10.68;7.90;;;;;;;14.89;77.23;100313.62;2755663;84;21055;-95
2023/01/02 13:56:03;;;;;;;9.28;7.15;;;;;;;14.92;76.38;100311.15;2680729;86;31997;-94
2023/01/02 14:00:19;;;;;;;10.08;7.83;;;;;;;15.03;75.67;100306.05;2720687;85;21124;-85
2023/01/02 14:04:32;;;;;;;8.90;6.35;;;;;;;15.03;75.10;100308.73;2744438;85;21039;-86
2023/01/02 14:08:37;;;;;;;12.25;9.63;;;;;;;15.03;75.31;100311.41;2769632;84;21088;-86
2023/01/02 14:12:50;;;;;;;18.07;11.53;;;;;;;15.02;74.96;100302.52;2705429;85;21069;-86
2023/01/02 14:17:16;;;;;;;15.60;9.30;;;;;;;15.02;74.75;100305.70;2747416;85;21536;-86
2023/01/02 14:21:18;;;;;;;;;;;;;;;14.95;74.67;100318.87;2734048;85;20995;-86
2023/01/02 14:25:20;;;;;;;13.85;8.98;;;;;;;14.90;74.84;100322.52;2731215;86;20417;-86
2023/01/02 14:29:24;;;;;;;11.30;8.88;;;;;;;14.82;75.19;100324.62;2670596;86;21067;-84
2023/01/02 14:33:32;;;;;;;12.05;10.03;;;;;;;14.78;75.40;100333.95;2742036;86;21025;-84
2023/01/02 14:37:41;;;;;;;9.40;8.50;;;;;;;14.75;75.89;100340.95;2738037;85;21012;-84
2023/01/02 14:46:29;;;;;;;13.50;9.53;;;;;;;14.53;76.59;100341.67;2744834;84;21041;-84
2023/01/02 14:50:33;;;;;;;11.03;8.88;;;;;;;14.39;77.10;100340.35;2730008;85;21068;-84
2023/01/02 14:54:58;;;;;;;9.63;7.72;;;;;;;14.33;77.45;100353.83;2749793;85;21088;-86
2023/01/02 14:59:02;;;;;;;10.55;7.30;;;;;;;14.22;78.36;100354.86;2683234;85;21089;-84
2023/01/02 15:03:15;;;;;;;10.93;6.80;;;;;;;14.09;79.68;100368.58;2762545;85;21324;-85
2023/01/02 15:07:44;;;;;;;11.85;6.53;;;;;;;13.98;80.46;100370.13;2737342;85;21568;-85
2023/01/02 15:16:21;;;;;;;11.68;7.87;;;;;;;13.77;80.87;100383.20;2748931;85;21092;-85
2023/01/02 15:20:25;;;;;;;9.75;7.67;;;;;;;13.78;81.33;100383.55;2753757;86;21530;-85
2023/01/02 15:24:29;;;;;;;10.43;8.83;;;;;;;13.70;81.54;100385.60;2748723;85;21564;-85
2023/01/02 15:28:33;;;;;;;9.73;7.05;;;;;;;13.59;82.05;100384.41;2768238;84;21026;-85
2023/01/02 15:32:34;;;;;;;11.05;7.60;;;;;;;13.58;82.35;100396.59;2719424;86;21005;-84
2023/01/02 15:36:39;;;;;;;7.53;6.40;;;;;;;13.53;82.72;100395.17;2749651;85;21028;-83
2023/01/02 15:40:41;;;;;;;8.95;6.60;;;;;;;13.44;83.32;100394.70;2754190;86;21536;-84
2023/01/02 15:49:03;;;;;;;10.43;7.78;;;;;;;13.32;84.05;100405.14;2753431;85;21056;-84
2023/01/02 15:53:10;;;;;;;12.70;8.35;;;;;;;13.26;83.67;100396.72;2749328;86;21337;-83
2023/01/02 15:57:15;;;;;;;15.00;11.88;;;;;;;13.20;83.58;100405.30;2739834;85;21737;-84
2023/01/02 16:01:20;;;;;;;15.72;10.35;;;;;;;13.18;83.21;100397.92;2753082;84;21047;-83
2023/01/02 16:05:21;;;;;;;24.18;15.45;;;;;;;13.14;82.87;100396.02;2808056;82;21014;-84
2023/01/02 16:09:30;;;;;;;20.57;13.18;;;;;;;13.17;82.49;100400.72;2804660;84;21003;-85
2023/01/02 16:17:56;;;;;;;16.35;13.20;;;;;;;13.08;82.41;100401.06;2755025;85;21009;-85
2023/01/02 16:22:08;;;;;;;18.60;12.25;;;;;;;13.09;82.31;100404.09;2742282;84;21072;-84
2023/01/02 16:26:12;;;;;;;23.55;15.72;;;;;;;13.06;82.15;100407.87;2909772;80;21058;-93
2023/01/02 16:30:32;;;;;;;18.40;12.95;;;;;;;13.06;82.21;100405.20;2911750;80;21050;-93
2023/01/02 16:34:37;;;;;;;18.50;13.98;;;;;;;12.99;82.25;100395.59;2934094;79;21101;-96
2023/01/02 16:38:53;;;;;;;12.20;10.90;;;;;;;13.02;82.09;100398.96;2927546;79;21510;-96
2023/01/02 16:43:06;;;;;;;19.17;12.50;;;;;;;13.02;81.92;100398.96;2924834;80;21027;-96
2023/01/02 16:47:01;;;;;;;39.35;24.52;;;;;;;12.98;82.28;100404.59;2898223;80;22071;-95
2023/01/02 16:51:05;;;;;;;22.32;16.27;;;;;;;12.88;82.66;100399.70;2903976;80;21018;-96
2023/01/02 16:55:17;;;;;;;24.63;17.48;;;;;;;12.73;83.48;100396.59;2933012;79;21070;-95
2023/01/02 16:59:19;;;;;;;27.27;21.10;;;;;;;12.69;83.70;100411.20;2925301;80;21046;-96
2023/01/02 17:03:24;;;;;;;18.98;14.03;;;;;;;12.64;83.91;100403.59;2884728;80;21007;-95
2023/01/02 17:07:26;;;;;;;14.20;12.13;;;;;;;12.57;84.48;100409.11;2922663;80;21523;-95
2023/01/02 17:11:27;;;;;;;17.75;13.08;;;;;;;12.54;84.61;100422.25;2930951;80;21531;-95
2023/01/02 17:15:31;;;;;;;14.15;11.90;;;;;;;12.43;85.13;100428.53;2897599;80;21023;-94
2023/01/02 17:19:32;;;;;;;22.07;12.50;;;;;;;12.35;85.54;100427.51;2928491;80;21015;-95
2023/01/02 17:23:33;;;;;;;17.95;12.53;;;;;;;12.33;85.52;100436.97;2868350;80;20975;-94
2023/01/02 17:27:35;;;;;;;19.42;13.22;;;;;;;12.19;86.33;100418.17;2797880;82;21078;-96
2023/01/02 17:31:40;;;;;;;16.75;13.43;;;;;;;12.22;86.03;100433.90;2840534;81;21361;-93
2023/01/02 17:39:54;;;;;;;20.43;14.07;;;;;;;12.11;86.66;100440.16;2823828;80;21044;-61
2023/01/02 17:43:57;;;;;;;19.12;13.93;;;;;;;12.08;86.72;100440.91;2876635;82;21054;-64
2023/01/02 17:47:59;;;;;;;17.92;13.35;;;;;;;12.05;86.82;100442.03;2858968;82;21019;-62
2023/01/02 17:52:01;;;;;;;19.77;13.68;;;;;;;11.99;86.93;100450.53;2865830;82;21014;-61
2023/01/02 17:56:02;;;;;;;19.12;12.93;;;;;;;11.95;87.28;100441.08;2861446;83;21011;-63
2023/01/02 18:00:11;;;;;;;16.77;12.78;;;;;;;11.93;86.89;100443.04;2859532;83;21894;-61
2023/01/02 18:04:13;;;;;;;17.65;12.18;;;;;;;11.87;87.20;100451.06;2872179;83;21083;-63
2023/01/02 18:08:15;;;;;;;12.75;10.58;;;;;;;11.90;87.05;100455.30;2807143;83;21003;-62
2023/01/02 18:12:51;;;;;;;15.90;12.05;;;;;;;11.82;87.57;100468.80;2805402;83;21050;-62
2023/01/02 18:16:55;;;;;;;14.47;10.70;;;;;;;11.81;88.02;100459.59;2793576;84;20996;-62
2023/01/02 18:20:56;;;;;;;14.25;9.55;;;;;;;11.77;88.70;100468.83;2871900;81;21013;-62
2023/01/02 18:25:30;;;;;;;17.70;10.25;;;;;;;11.67;89.12;100462.92;2870391;82;22296;-62
2023/01/02 18:29:31;;;;;;;12.63;9.68;;;;;;;11.69;89.08;100468.13;2861865;83;21063;-64
2023/01/02 18:33:34;;;;;;;16.27;12.37;;;;;;;11.69;88.95;100480.98;2819699;84;21055;-65
2023/01/02 18:37:35;;;;;;;16.48;12.05;;;;;;;11.67;89.74;100484.73;2871669;82;21005;-62
2023/01/02 18:41:42;;;;;;;20.60;13.15;;;;;;;11.63;90.18;100496.12;2882159;82;21107;-64
2023/01/02 18:45:48;;;;;;;10.75;9.00;;;;;;;11.57;91.18;100496.14;2847909;82;21007;-64
2023/01/02 18:49:50;;;;;;;18.67;13.50;;;;;;;11.58;91.36;100500.50;2825616;83;21007;-62
2023/01/02 18:53:55;;;;;;;17.73;12.58;;;;;;;11.55;91.50;100509.25;2822692;83;21017;-62
2023/01/02 18:58:08;;;;;;;20.63;13.77;;;;;;;11.55;91.43;100515.91;2834737;83;21080;-62
2023/01/02 19:02:36;;;;;;;17.23;13.40;;;;;;;11.51;91.59;100507.82;2829392;83;21011;-65
2023/01/02 19:06:43;;;;;;;15.50;11.35;;;;;;;11.55;91.12;100519.41;2794988;84;21249;-62
2023/01/02 19:10:52;;;;;;;17.48;12.73;;;;;;;11.60;90.48;100531.02;2880249;82;21050;-61
2023/01/02 19:15:06;;;;;;;18.87;14.83;;;;;;;11.62;90.11;100522.92;2892210;81;21019;-62
2023/01/02 19:19:16;;;;;;;23.20;15.03;;;;;;;11.60;90.21;100527.03;2889951;81;21035;-64
2023/01/02 19:23:29;;;;;;;17.85;12.93;;;;;;;11.45;91.05;100524.28;2854738;82;21012;-63
2023/01/02 19:27:36;;;;;;;17.40;13.90;;;;;;;11.45;91.64;100521.63;2821115;83;21001;-62
2023/01/02 19:32:10;;;;;;;20.37;13.65;;;;;;;11.45;91.62;100530.47;2835840;83;21000;-64